地図

経路データ

SID SEASON NUMBER BASIN SUBBASIN NAME ISO_TIME NATURE LAT LON WMO_WIND WMO_PRES WMO_AGENCY TRACK_TYPE DIST2LAND LANDFALL IFLAG USA_AGENCY USA_ATCF_ID USA_LAT USA_LON USA_RECORD USA_STATUS USA_WIND USA_PRES USA_SSHS USA_R34_NE USA_R34_SE USA_R34_SW USA_R34_NW USA_R50_NE USA_R50_SE USA_R50_SW USA_R50_NW USA_R64_NE USA_R64_SE USA_R64_SW USA_R64_NW USA_POCI USA_ROCI USA_RMW USA_EYE TOKYO_LAT TOKYO_LON TOKYO_GRADE TOKYO_WIND TOKYO_PRES TOKYO_R50_DIR TOKYO_R50_LONG TOKYO_R50_SHORT TOKYO_R30_DIR TOKYO_R30_LONG TOKYO_R30_SHORT TOKYO_LAND CMA_LAT CMA_LON CMA_CAT CMA_WIND CMA_PRES HKO_LAT HKO_LON HKO_CAT HKO_WIND HKO_PRES NEWDELHI_LAT NEWDELHI_LON NEWDELHI_GRADE NEWDELHI_WIND NEWDELHI_PRES NEWDELHI_CI NEWDELHI_DP NEWDELHI_POCI REUNION_LAT REUNION_LON REUNION_TYPE REUNION_WIND REUNION_PRES REUNION_TNUM REUNION_CI REUNION_RMW REUNION_R34_NE REUNION_R34_SE REUNION_R34_SW REUNION_R34_NW REUNION_R50_NE REUNION_R50_SE REUNION_R50_SW REUNION_R50_NW REUNION_R64_NE REUNION_R64_SE REUNION_R64_SW REUNION_R64_NW BOM_LAT BOM_LON BOM_TYPE BOM_WIND BOM_PRES BOM_TNUM BOM_CI BOM_RMW BOM_R34_NE BOM_R34_SE BOM_R34_SW BOM_R34_NW BOM_R50_NE BOM_R50_SE BOM_R50_SW BOM_R50_NW BOM_R64_NE BOM_R64_SE BOM_R64_SW BOM_R64_NW BOM_ROCI BOM_POCI BOM_EYE BOM_POS_METHOD BOM_PRES_METHOD NADI_LAT NADI_LON NADI_CAT NADI_WIND NADI_PRES WELLINGTON_LAT WELLINGTON_LON WELLINGTON_WIND WELLINGTON_PRES DS824_LAT DS824_LON DS824_STAGE DS824_WIND DS824_PRES TD9636_LAT TD9636_LON TD9636_STAGE TD9636_WIND TD9636_PRES TD9635_LAT TD9635_LON TD9635_WIND TD9635_PRES TD9635_ROCI NEUMANN_LAT NEUMANN_LON NEUMANN_CLASS NEUMANN_WIND NEUMANN_PRES MLC_LAT MLC_LON MLC_CLASS MLC_WIND MLC_PRES USA_GUST BOM_GUST BOM_GUST_PER REUNION_GUST REUNION_GUST_PER USA_SEAHGT USA_SEARAD_NE USA_SEARAD_SE USA_SEARAD_SW USA_SEARAD_NW STORM_SPEED STORM_DIR
1977033S13092 1977 11 SI WA GILDA 1977-02-01 18:00:00 TS -12.5000 91.8000 main 1441 1441 O________OO___ jtwc_sh SH131977 -12.5000 91.8000 -1 -12.5000 91.8000 TC -12.5000 91.8000 7 20 258
1977033S13092 1977 11 SI WA GILDA 1977-02-01 21:00:00 TS -12.7001 90.7937 main 1521 1521 P________PP___ SH131977 -12.7008 90.7853 -1 -12.7008 90.7853 TC -12.6986 90.8107 7 20 258
1977033S13092 1977 11 SI MM GILDA 1977-02-02 00:00:00 TS -12.8987 89.8121 main 1606 1606 O________OP___ jtwc_sh SH131977 -12.9000 89.8000 -1 -12.9000 89.8000 TC -12.8962 89.8362 7 19 258
1977033S13092 1977 11 SI MM GILDA 1977-02-02 03:00:00 TS -13.0983 88.8779 main 1686 1686 P________PP___ SH131977 -13.0997 88.8699 -1 -13.0997 88.8699 TC -13.0957 88.8938 7 18 257
1977033S13092 1977 11 SI MM GILDA 1977-02-02 06:00:00 TS -13.3000 88.0000 main 1769 1769 O________OO___ jtwc_sh SH131977 -13.3000 88.0000 -1 -13.3000 88.0000 TC 25 -13.3000 88.0000 1 17 256
1977033S13092 1977 11 SI MM GILDA 1977-02-02 09:00:00 TS -13.4988 87.1780 main 1845 1845 P________PP___ SH131977 -13.4921 87.1848 -1 -13.4921 87.1848 TC 25 -13.5121 87.1644 1 16 255
1977033S13092 1977 11 SI MM GILDA 1977-02-02 12:00:00 TS -13.7109 86.3897 main 1923 1923 O________OP___ jtwc_sh SH131977 -13.7000 86.4000 -1 -13.7000 86.4000 TC 25 -13.7328 86.3692 1 16 254
1977033S13092 1977 11 SI MM GILDA 1977-02-02 15:00:00 TS -13.9488 85.6063 main 2002 2002 P________PP___ SH131977 -13.9421 85.6148 -1 -13.9421 85.6148 TC 25 -13.9621 85.5893 1 16 252
1977033S13092 1977 11 SI MM GILDA 1977-02-02 18:00:00 TS -14.2000 84.8000 main 2089 2089 O________OO___ jtwc_sh SH131977 -14.2000 84.8000 -1 -14.2000 84.8000 TC 25 -14.2000 84.8000 1 17 253
1977033S13092 1977 11 SI MM GILDA 1977-02-02 21:00:00 TS -14.4546 83.8987 main 2185 2185 P________PP___ SH131977 -14.4500 83.8999 -1 -14.4500 83.8999 TC 25 -14.4639 83.8962 1 18 254
1977033S13092 1977 11 SI MM GILDA 1977-02-03 00:00:00 TS -14.7105 82.9963 main 2274 2274 O________OP___ jtwc_sh SH131977 -14.7000 83.0000 -1 -14.7000 83.0000 TC 25 -14.7314 82.9888 1 18 253
1977033S13092 1977 11 SI MM GILDA 1977-02-03 03:00:00 TS -14.9710 82.1340 main 2347 2345 P________PP___ SH131977 -14.9650 82.1326 -1 -14.9650 82.1326 TC 25 -14.9829 82.1368 1 16 252
1977033S13092 1977 11 SI MM GILDA 1977-02-03 06:00:00 TS -15.2000 81.4000 main 2365 2365 O________OO___ jtwc_sh SH131977 -15.2000 81.4000 -1 -15.2000 81.4000 TC 25 -15.2000 81.4000 1 13 252
1977033S13092 1977 11 SI MM GILDA 1977-02-03 09:00:00 TS -15.3704 80.8812 main 2386 2386 P________PP___ SH131977 -15.3720 80.8898 -1 -15.3720 80.8898 TC 25 -15.3670 80.8641 1 9 251
1977033S13092 1977 11 SI MM GILDA 1977-02-03 12:00:00 TS -15.5000 80.4813 main 2397 2397 O________OP___ jtwc_sh SH131977 -15.5000 80.5000 -1 -15.5000 80.5000 TC 25 -15.4999 80.4440 1 8 253
1977033S13092 1977 11 SI MM GILDA 1977-02-03 15:00:00 TS -15.6025 80.0972 main 2409 2370 P________PP___ SH131977 -15.5998 80.1073 -1 -15.5998 80.1073 TC 25 -15.6080 80.0769 1 8 255
1977033S13092 1977 11 SI MM GILDA 1977-02-03 18:00:00 TS -15.7000 79.7000 main 2370 2326 O________OO___ jtwc_sh SH131977 -15.7000 79.7000 -1 -15.7000 79.7000 TC 25 -15.7000 79.7000 1 9 253
1977033S13092 1977 11 SI MM GILDA 1977-02-03 21:00:00 TS -15.8586 79.2257 main 2313 2268 P________PP___ SH131977 -15.8650 79.2152 -1 -15.8650 79.2152 TC 25 -15.8457 79.2467 1 10 253
1977033S13092 1977 11 SI MM GILDA 1977-02-04 00:00:00 TS -15.9897 78.7230 main 2258 2214 O________OP___ jtwc_sh SH131977 -16.0000 78.7000 -1 -16.0000 78.7000 TC 25 -15.9691 78.7689 1 10 259
1977033S13092 1977 11 SI MM GILDA 1977-02-04 03:00:00 TS -16.0508 78.2339 main 2204 2155 P________PP___ SH131977 -16.0597 78.2227 -1 -16.0597 78.2227 TC 25 -16.0330 78.2565 1 10 269
1977033S13092 1977 11 SI MM GILDA 1977-02-04 06:00:00 TS -16.0000 77.7000 reunion main 2155 2113 O________OO___ jtwc_sh SH131977 -16.0000 77.7000 -1 -16.0000 77.7000 TC 25 -16.0000 77.7000 1 11 292
1977033S13092 1977 11 SI MM GILDA 1977-02-04 09:00:00 TS -15.6482 77.2057 main 2117 2066 P________PP___ SH131977 -15.7950 77.0723 -1 -15.7950 77.0723 TC 25 -15.8172 77.1041 1 13 304
1977033S13092 1977 11 SI MM GILDA 1977-02-04 12:00:00 TS -15.2849 76.5915 reunion main 2066 2016 O____O___OP_O_ jtwc_sh SH131977 -15.5000 76.4000 -1 -14.6000 77.1000 99 9.90000 -15.5000 76.4000 TC 25 -15.5395 76.4658 1 -14.6000 77.1000 TC 30 13 300
1977033S13092 1977 11 SI MM GILDA 1977-02-04 15:00:00 TS -14.9851 75.9976 main 2016 1963 P____P___PP_P_ SH131977 -15.2072 75.7652 -1 -14.5476 76.4850 99 -15.2072 75.7652 TC 25 -15.2170 75.7949 1 -14.5476 76.4850 TC 30 13 295
1977033S13092 1977 11 SI MM GILDA 1977-02-04 18:00:00 TS -14.7400 75.3800 reunion main 1967 1901 O____O___OO_O_ jtwc_sh SH131977 -14.9000 75.1000 -1 -14.5000 75.8000 99 9.90000 -14.9000 75.1000 TC 25 -14.9000 75.1000 1 -14.5000 75.8000 TC 30 14 288
1977033S13092 1977 11 SI MM GILDA 1977-02-04 21:00:00 TS -14.5376 74.6064 main 1895 1830 P____P___PP_P_ SH131977 -14.5775 74.3574 -1 -14.4701 75.0073 99 -14.5775 74.3574 TC 25 -14.5928 74.3025 1 -14.4701 75.0073 TC 30 16 283
1977033S13092 1977 11 SI MM GILDA 1977-02-05 00:00:00 TS -14.3819 73.8198 reunion main 1820 1756 O____O___OP_O_ jtwc_sh SH131977 -14.3000 73.6000 -1 -14.5000 74.2000 99 9.90000 -14.3000 73.6000 TC 25 -14.3093 73.4989 1 -14.5000 74.2000 TC 30 15 279
1977033S13092 1977 11 SI MM GILDA 1977-02-05 03:00:00 TS -14.3062 73.0633 main 1756 1698 P____P___PP_P_ SH131977 -14.0827 72.8100 -1 -14.6348 73.4627 99 -14.0827 72.8100 TC 25 -14.0959 72.7711 1 -14.6348 73.4627 TC 30 13 273
1977033S13092 1977 11 SI MM GILDA 1977-02-05 06:00:00 TS -14.3200 72.4400 reunion main 1688 1654 O____O___OO_O_ jtwc_sh SH131977 -14.0000 72.2000 -1 -14.8000 72.8000 2 9.90000 -14.0000 72.2000 TC 25 -14.0000 72.2000 1 -14.8000 72.8000 TC 30 10 263
1977033S13092 1977 11 SI MM GILDA 1977-02-05 09:00:00 TS -14.4177 72.0653 main 1654 1615 P____P___PP_P_ SH131977 -14.0896 71.9676 -1 -14.9148 72.2124 2 -14.0896 71.9676 TC 25 -14.0799 71.9664 1 -14.9148 72.2124 TC 30 7 247
1977033S13092 1977 11 SI MM GILDA 1977-02-05 12:00:00 TS -14.5755 71.8155 reunion main 1615 1591 O____O___OP_O_ jtwc_sh SH131977 -14.3000 71.9000 -1 -15.0000 71.7000 99 9.90000 -14.3000 71.9000 TC 25 -14.2773 71.8776 1 -15.0000 71.7000 TC 30 6 235
1977033S13092 1977 11 SI MM GILDA 1977-02-05 15:00:00 TS -14.7380 71.5868 main 1591 1552 P____P___PP_P_ SH131977 -14.5422 71.8248 -1 -15.0348 71.2423 99 -14.5422 71.8248 TC 25 -14.5362 71.8001 1 -15.0348 71.2423 TC 30 6 236
1977033S13092 1977 11 SI MM GILDA 1977-02-05 18:00:00 TS -14.9200 71.2800 reunion main 1552 1494 O____O___OO_O_ jtwc_sh SH131977 -14.8000 71.6000 -1 -15.1000 70.8000 99 9.90000 -14.8000 71.6000 TC 25 -14.8000 71.6000 1 -15.1000 70.8000 TC 30 9 245
1977033S13092 1977 11 SI MM GILDA 1977-02-05 21:00:00 TS -15.1186 70.7533 main 1494 1426 P____P___PP_P_ SH131977 -15.0153 71.0251 -1 -15.2774 70.3150 99 -15.0153 71.0251 TC 25 -15.0075 71.0864 1 -15.2774 70.3150 TC 30 12 250
1977033S13092 1977 11 SI MM GILDA 1977-02-06 00:00:00 TS -15.3208 70.1272 reunion main 1416 1349 O____O___OP_O_ jtwc_sh SH131977 -15.2000 70.3000 -1 -15.5000 69.8000 99 9.90000 -15.2000 70.3000 TC 25 -15.2039 70.4360 1 -15.5000 69.8000 TC 30 13 252
1977033S13092 1977 11 SI MM GILDA 1977-02-06 03:00:00 TS -15.5126 69.4976 main 1349 1281 P____P___PP_P_ SH131977 -15.3799 69.6426 -1 -15.7150 69.2426 99 -15.3799 69.6426 TC 25 -15.3731 69.7175 1 -15.7150 69.2426 TC 32 13 254
1977033S13092 1977 11 SI MM GILDA 1977-02-06 06:00:00 TS -15.6600 68.8800 reunion main 1281 1233 O____O___OO_O_ jtwc_sh SH131977 -15.5000 69.0000 -1 -15.9000 68.7000 3 9.90000 -15.5000 69.0000 TC 25 -15.5000 69.0000 1 -15.9000 68.7000 TC 35 11 260
1977033S13092 1977 11 SI MM GILDA 1977-02-06 09:00:00 TS -15.7193 68.3278 main 1223 1170 P____P___PP_P_ SH131977 -15.5148 68.3922 -1 -15.9998 68.2347 3 -15.5148 68.3922 TC 25 -15.5674 68.3850 1 -15.9998 68.2347 TC 35 10 265
1977033S13092 1977 11 SI MM GILDA 1977-02-06 12:00:00 TS -15.7588 67.7968 reunion main 1170 1118 O____O___OP_O_ jtwc_sh SH131977 -15.5000 67.8000 -1 -16.1000 67.8000 99 9.90000 -15.5000 67.8000 TC 25 -15.5941 67.7842 1 -16.1000 67.8000 TC 35 10 262
1977033S13092 1977 11 SI MM GILDA 1977-02-06 15:00:00 TS -15.8566 67.2583 main 1118 1056 P____P___PP_P_ SH131977 -15.5498 67.2001 -1 -16.2924 67.3501 99 -15.5498 67.2001 TC 25 -15.5987 67.1913 1 -16.2924 67.3501 TC 35 11 259
1977033S13092 1977 11 SI MM GILDA 1977-02-06 18:00:00 TS -15.9600 66.7200 reunion main 1056 1008 O____O___OO_O_ jtwc_sh SH131977 -15.6000 66.6000 -1 -16.5000 66.9000 99 9.90000 -15.6000 66.6000 TC 25 -15.6000 66.6000 1 -16.5000 66.9000 TC 35 10 261
1977033S13092 1977 11 SI MM GILDA 1977-02-06 21:00:00 TS -16.0167 66.1853 main 1008 956 P____P___PP_P_ SH131977 -15.5998 65.9999 -1 -16.6722 66.4725 99 -15.5998 65.9999 TC 25 -15.5395 65.9821 1 -16.6722 66.4725 TC 37 11 265
1977033S13092 1977 11 SI MM GILDA 1977-02-07 00:00:00 TS -16.0585 65.6335 reunion main 947 900 O____O___OP_O_ jtwc_sh SH131977 -15.6000 65.4000 -1 -16.8000 66.0000 99 9.90000 -15.6000 65.4000 TC 25 -15.4924 65.3674 1 -16.8000 66.0000 TC 40 11 267
1977033S13092 1977 11 SI MM GILDA 1977-02-07 03:00:00 TS -16.0838 65.0306 main 891 840 P____P___PP_P_ SH131977 -15.5899 64.7921 -1 -16.8577 65.3998 99 -15.5899 64.7921 TC 25 -15.5240 64.7692 1 -16.8577 65.3998 TC 37 12 264
1977033S13092 1977 11 SI MM GILDA 1977-02-07 06:00:00 TS -16.1800 64.4400 reunion main 831 774 O____O___OO_O_ jtwc_sh SH131977 -15.7000 64.2000 -1 -16.9000 64.8000 3 9.90000 -15.7000 64.2000 TC 25 -15.7000 64.2000 1 -16.9000 64.8000 TC 35 11 253
1977033S13092 1977 11 SI MM GILDA 1977-02-07 09:00:00 TS -16.4063 63.9018 main 774 711 P____P___PP_P_ SH131977 -16.0024 63.6274 -1 -16.9697 64.3348 3 -16.0024 63.6274 TC 25 -16.0872 63.5847 1 -16.9697 64.3348 TC 32 12 240
1977033S13092 1977 11 SI MM GILDA 1977-02-07 12:00:00 TS -16.7641 63.4018 reunion main 705 636 O____O___OP_O_ jtwc_sh SH131977 -16.5000 63.1000 -1 -17.1000 63.9000 99 9.90000 -16.5000 63.1000 TC 25 -16.6206 63.0091 1 -17.1000 63.9000 TC 30 13 229
1977033S13092 1977 11 SI MM GILDA 1977-02-07 15:00:00 TS -17.2507 62.9020 main 630 566 P____P___PP_P_ SH131977 -17.1700 62.5905 -1 -17.3350 63.4002 99 -17.1700 62.5905 TC 25 -17.2436 62.5286 1 -17.3350 63.4002 TC 30 14 222
1977033S13092 1977 11 SI MM GILDA 1977-02-07 18:00:00 TS -17.8000 62.4333 reunion main 557 503 O____O___OO_O_ jtwc_sh SH131977 -17.9000 62.2000 -1 -17.6000 62.9000 99 9.90000 -17.9000 62.2000 TC 25 -17.9000 62.2000 1 -17.6000 62.9000 TC 30 13 216
1977033S13092 1977 11 SI MM GILDA 1977-02-07 21:00:00 TS -18.3206 62.0809 main 503 457 P____P___PP_P_ SH131977 -18.5073 61.9450 -1 -17.8176 62.4375 99 -18.5073 61.9450 TC 25 -18.4978 61.9990 1 -17.8176 62.4375 TC 30 12 202
1977033S13092 1977 11 SI MM GILDA 1977-02-08 00:00:00 TS -18.9479 61.9326 reunion main 457 443 O____O___OP_O_ jtwc_sh SH131977 -19.1000 61.9000 -1 -18.0000 62.0000 99 9.90000 -19.1000 61.9000 TC 25 -19.1177 61.9641 1 -18.0000 62.0000 TC 30 14 0
1977033S13092 1977 11 SI MM GILDA 1977-02-08 03:00:00 TS -19.7462 62.0674 main 454 451 P________PP___ SH131977 -19.7424 62.0525 -1 99 -19.7424 62.0525 TC 25 -19.7539 62.0971 1 TC 15 163
1977033S13092 1977 11 SI MM GILDA 1977-02-08 06:00:00 TS -20.4000 62.4000 reunion main 479 479 O________OO___ jtwc_sh SH131977 -20.4000 62.4000 -1 -20.4000 62.4000 TC 25 -20.4000 62.4000 1 15 151
1977033S13092 1977 11 SI MM GILDA 1977-02-08 09:00:00 TS -21.0499 62.8397 main 526 526 P________PP___ SH131977 -21.0497 62.8255 -1 -21.0497 62.8255 TC 25 -21.0502 62.8680 1 16 144
1977033S13092 1977 11 SI MM GILDA 1977-02-08 12:00:00 TS -21.7006 63.4227 reunion main 601 601 O________OP___ jtwc_sh SH131977 -21.7000 63.4000 -1 -21.7000 63.4000 TC 25 -21.7017 63.4682 1 18 137
1977033S13092 1977 11 SI MM GILDA 1977-02-08 15:00:00 TS -22.3513 64.1271 main 693 693 P________PP___ SH131977 -22.3509 64.1109 -1 -22.3509 64.1109 TC 25 -22.3522 64.1594 1 19 134
1977033S13092 1977 11 SI MM GILDA 1977-02-08 18:00:00 TS -23.0000 64.9000 reunion main 793 O________OO___ jtwc_sh SH131977 -23.0000 64.9000 -1 -23.0000 64.9000 TC 25 -23.0000 64.9000 6 19 132

IBTrACS Databaseについて

本データベースは、米国NOAAが公開する1842年以降の世界の熱帯低気圧のベストトラックデータアーカイブInternational Best Track Archive for Climate Stewardship (IBTrACS)を、ウェブで閲覧しやすい形式に変換したものです。

最終更新日:2021-10-27